sensor_id;sensor_type;location;lat;lon;timestamp;pressure;altitude;pressure_sealevel;temperature;humidity
74637;BME280;63141;54.616;39.754;2023-04-25T00:01:20;100125.16;;;25.25;30.42
74637;BME280;63141;54.616;39.754;2023-04-25T00:04:27;100121.66;;;25.25;30.19
74637;BME280;63141;54.616;39.754;2023-04-25T00:07:28;100125.25;;;25.24;30.36
74637;BME280;63141;54.616;39.754;2023-04-25T00:10:30;100128.78;;;25.24;30.29
74637;BME280;63141;54.616;39.754;2023-04-25T00:13:32;100126.13;;;25.24;30.39
74637;BME280;63141;54.616;39.754;2023-04-25T00:16:33;100126.97;;;25.25;30.45
74637;BME280;63141;54.616;39.754;2023-04-25T00:19:38;100129.66;;;25.25;30.55
74637;BME280;63141;54.616;39.754;2023-04-25T00:22:40;100127.91;;;25.24;30.42
74637;BME280;63141;54.616;39.754;2023-04-25T00:25:41;100126.13;;;25.24;30.53
74637;BME280;63141;54.616;39.754;2023-04-25T00:28:42;100120.78;;;25.24;30.80
74637;BME280;63141;54.616;39.754;2023-04-25T00:31:44;100115.53;;;25.23;30.54
74637;BME280;63141;54.616;39.754;2023-04-25T00:34:45;100112.88;;;25.23;30.60
74637;BME280;63141;54.616;39.754;2023-04-25T00:37:47;100117.34;;;25.22;30.83
74637;BME280;63141;54.616;39.754;2023-04-25T00:40:48;100118.19;;;25.23;30.70
74637;BME280;63141;54.616;39.754;2023-04-25T00:43:50;100128.00;;;25.22;30.94
74637;BME280;63141;54.616;39.754;2023-04-25T00:46:52;100127.06;;;25.23;30.93
74637;BME280;63141;54.616;39.754;2023-04-25T00:49:54;100123.53;;;25.23;30.65
74637;BME280;63141;54.616;39.754;2023-04-25T00:52:55;100120.09;;;25.21;30.89
74637;BME280;63141;54.616;39.754;2023-04-25T00:55:57;100122.56;;;25.24;30.61
74637;BME280;63141;54.616;39.754;2023-04-25T00:58:58;100117.34;;;25.22;30.73
74637;BME280;63141;54.616;39.754;2023-04-25T01:02:00;100123.53;;;25.23;30.61
74637;BME280;63141;54.616;39.754;2023-04-25T01:05:07;100119.13;;;25.22;30.70
74637;BME280;63141;54.616;39.754;2023-04-25T01:08:10;100115.59;;;25.21;31.05
74637;BME280;63141;54.616;39.754;2023-04-25T01:11:11;100109.41;;;25.21;30.94
74637;BME280;63141;54.616;39.754;2023-04-25T01:14:12;100111.13;;;25.22;30.96
74637;BME280;63141;54.616;39.754;2023-04-25T01:17:14;100098.75;;;25.21;31.08
74637;BME280;63141;54.616;39.754;2023-04-25T01:20:16;100101.44;;;25.21;31.14
74637;BME280;63141;54.616;39.754;2023-04-25T01:23:22;100100.47;;;25.22;31.13
74637;BME280;63141;54.616;39.754;2023-04-25T01:26:24;100092.56;;;25.20;30.67
74637;BME280;63141;54.616;39.754;2023-04-25T01:29:27;100089.91;;;25.20;31.21
74637;BME280;63141;54.616;39.754;2023-04-25T01:32:30;100091.72;;;25.20;30.75
74637;BME280;63141;54.616;39.754;2023-04-25T01:35:41;100085.50;;;25.19;30.75
74637;BME280;63141;54.616;39.754;2023-04-25T01:38:43;100097.06;;;25.20;30.84
74637;BME280;63141;54.616;39.754;2023-04-25T01:41:46;100097.06;;;25.20;31.02
74637;BME280;63141;54.616;39.754;2023-04-25T01:44:47;100096.16;;;25.19;30.80
74637;BME280;63141;54.616;39.754;2023-04-25T01:47:49;100100.66;;;25.19;31.27
74637;BME280;63141;54.616;39.754;2023-04-25T01:50:51;100100.66;;;25.19;31.03
74637;BME280;63141;54.616;39.754;2023-04-25T01:53:53;100084.66;;;25.19;30.91
74637;BME280;63141;54.616;39.754;2023-04-25T01:56:57;100084.66;;;25.19;30.91
74637;BME280;63141;54.616;39.754;2023-04-25T02:00:01;100085.56;;;25.18;31.17
74637;BME280;63141;54.616;39.754;2023-04-25T02:03:18;100089.97;;;25.19;31.26
74637;BME280;63141;54.616;39.754;2023-04-25T02:06:19;100082.03;;;25.17;30.88
74637;BME280;63141;54.616;39.754;2023-04-25T02:09:26;100089.13;;;25.18;31.22
74637;BME280;63141;54.616;39.754;2023-04-25T02:12:31;100083.78;;;25.18;31.21
74637;BME280;63141;54.616;39.754;2023-04-25T02:15:35;100074.91;;;25.18;31.23
74637;BME280;63141;54.616;39.754;2023-04-25T02:18:48;100075.84;;;25.17;31.44
74637;BME280;63141;54.616;39.754;2023-04-25T02:21:50;100086.50;;;25.17;31.14
74637;BME280;63141;54.616;39.754;2023-04-25T02:24:52;100084.78;;;25.16;30.98
74637;BME280;63141;54.616;39.754;2023-04-25T02:27:55;100089.16;;;25.17;30.98
74637;BME280;63141;54.616;39.754;2023-04-25T02:30:56;100082.91;;;25.18;31.30
74637;BME280;63141;54.616;39.754;2023-04-25T02:33:59;100088.31;;;25.16;31.02
74637;BME280;63141;54.616;39.754;2023-04-25T02:37:02;100089.28;;;25.15;31.22
74637;BME280;63141;54.616;39.754;2023-04-25T02:40:04;100095.44;;;25.16;31.20
74637;BME280;63141;54.616;39.754;2023-04-25T02:43:06;100087.47;;;25.16;31.15
74637;BME280;63141;54.616;39.754;2023-04-25T02:46:08;100091.03;;;25.15;31.06
74637;BME280;63141;54.616;39.754;2023-04-25T02:49:09;100093.63;;;25.16;31.54
74637;BME280;63141;54.616;39.754;2023-04-25T02:52:11;100095.44;;;25.16;31.61
74637;BME280;63141;54.616;39.754;2023-04-25T02:55:13;100097.16;;;25.17;31.42
74637;BME280;63141;54.616;39.754;2023-04-25T02:58:18;100085.81;;;25.13;31.26
74637;BME280;63141;54.616;39.754;2023-04-25T03:01:25;100090.19;;;25.14;31.19
74637;BME280;63141;54.616;39.754;2023-04-25T03:04:32;100085.72;;;25.15;31.41
74637;BME280;63141;54.616;39.754;2023-04-25T03:07:34;100090.13;;;25.16;31.62
74637;BME280;63141;54.616;39.754;2023-04-25T03:10:35;100091.84;;;25.17;31.28
74637;BME280;63141;54.616;39.754;2023-04-25T03:13:40;100103.34;;;25.17;31.23
74637;BME280;63141;54.616;39.754;2023-04-25T03:16:42;100098.00;;;25.17;31.61
74637;BME280;63141;54.616;39.754;2023-04-25T03:19:44;100098.00;;;25.17;31.22
74637;BME280;63141;54.616;39.754;2023-04-25T03:22:48;100100.66;;;25.19;31.59
74637;BME280;63141;54.616;39.754;2023-04-25T03:25:49;100082.91;;;25.18;31.50
74637;BME280;63141;54.616;39.754;2023-04-25T03:28:54;100082.91;;;25.18;31.88
74637;BME280;63141;54.616;39.754;2023-04-25T03:31:55;100092.69;;;25.17;31.72
74637;BME280;63141;54.616;39.754;2023-04-25T03:34:59;100084.69;;;25.17;32.09
74637;BME280;63141;54.616;39.754;2023-04-25T03:38:02;100084.69;;;25.17;32.14
74637;BME280;63141;54.616;39.754;2023-04-25T03:41:08;100093.72;;;25.32;32.51
74637;BME280;63141;54.616;39.754;2023-04-25T03:44:15;100092.09;;;25.45;32.52
74637;BME280;63141;54.616;39.754;2023-04-25T03:47:19;100081.44;;;25.45;32.28
74637;BME280;63141;54.616;39.754;2023-04-25T03:50:21;100079.88;;;25.41;32.24
74637;BME280;63141;54.616;39.754;2023-04-25T03:53:25;100074.81;;;25.37;32.37
74637;BME280;63141;54.616;39.754;2023-04-25T03:56:49;100092.41;;;25.23;31.78
74637;BME280;63141;54.616;39.754;2023-04-25T03:59:56;100084.50;;;25.04;31.71
74637;BME280;63141;54.616;39.754;2023-04-25T04:03:15;100089.53;;;24.93;31.65
74637;BME280;63141;54.616;39.754;2023-04-25T04:06:23;100093.16;;;24.75;31.36
74637;BME280;63141;54.616;39.754;2023-04-25T04:09:34;100089.16;;;24.66;31.94
74637;BME280;63141;54.616;39.754;2023-04-25T04:12:39;100080.47;;;24.62;31.77
74637;BME280;63141;54.616;39.754;2023-04-25T04:15:44;100073.41;;;24.61;31.65
74637;BME280;63141;54.616;39.754;2023-04-25T04:18:45;100077.97;;;24.59;31.29
74637;BME280;63141;54.616;39.754;2023-04-25T04:21:56;100069.97;;;24.59;31.27
74637;BME280;63141;54.616;39.754;2023-04-25T04:24:57;100085.09;;;24.59;31.17
74637;BME280;63141;54.616;39.754;2023-04-25T04:28:17;100075.47;;;24.56;31.04
74637;BME280;63141;54.616;39.754;2023-04-25T04:31:32;100080.94;;;24.53;31.08
74637;BME280;63141;54.616;39.754;2023-04-25T04:34:35;100084.53;;;24.52;31.43
74637;BME280;63141;54.616;39.754;2023-04-25T04:37:40;100089.00;;;24.52;31.41
74637;BME280;63141;54.616;39.754;2023-04-25T04:40:43;100088.28;;;24.48;31.34
74637;BME280;63141;54.616;39.754;2023-04-25T04:44:00;100087.72;;;24.41;31.47
74637;BME280;63141;54.616;39.754;2023-04-25T04:47:34;100083.41;;;24.39;31.53
74637;BME280;63141;54.616;39.754;2023-04-25T04:51:06;100088.44;;;24.45;31.45
74637;BME280;63141;54.616;39.754;2023-04-25T04:54:26;100079.38;;;24.49;31.28
74637;BME280;63141;54.616;39.754;2023-04-25T04:57:48;100072.94;;;24.53;31.68
74637;BME280;63141;54.616;39.754;2023-04-25T05:01:15;100072.69;;;24.58;31.45
74637;BME280;63141;54.616;39.754;2023-04-25T05:05:00;100077.03;;;24.60;31.81
74637;BME280;63141;54.616;39.754;2023-04-25T05:08:21;100068.09;;;24.61;32.04
74637;BME280;63141;54.616;39.754;2023-04-25T05:12:01;100064.50;;;24.62;31.78
74637;BME280;63141;54.616;39.754;2023-04-25T05:15:37;100062.59;;;24.64;31.56
74637;BME280;63141;54.616;39.754;2023-04-25T05:19:08;100061.75;;;24.64;31.54
74637;BME280;63141;54.616;39.754;2023-04-25T05:22:27;100067.00;;;24.65;31.61
74637;BME280;63141;54.616;39.754;2023-04-25T05:25:51;100071.38;;;24.66;31.74
74637;BME280;63141;54.616;39.754;2023-04-25T05:29:01;100064.16;;;24.69;31.63
74637;BME280;63141;54.616;39.754;2023-04-25T05:32:26;100065.91;;;24.70;31.86
74637;BME280;63141;54.616;39.754;2023-04-25T05:35:33;100063.25;;;24.70;31.87
74637;BME280;63141;54.616;39.754;2023-04-25T05:38:40;100062.28;;;24.71;31.98
74637;BME280;63141;54.616;39.754;2023-04-25T05:41:48;100058.72;;;24.72;31.87
74637;BME280;63141;54.616;39.754;2023-04-25T05:45:14;100067.44;;;24.74;31.85
74637;BME280;63141;54.616;39.754;2023-04-25T05:48:46;100069.25;;;24.73;31.70
74637;BME280;63141;54.616;39.754;2023-04-25T05:52:16;100061.25;;;24.73;31.73
74637;BME280;63141;54.616;39.754;2023-04-25T05:55:28;100065.66;;;24.74;31.82
74637;BME280;63141;54.616;39.754;2023-04-25T05:58:30;100056.78;;;24.74;32.03
74637;BME280;63141;54.616;39.754;2023-04-25T06:01:36;100056.78;;;24.74;32.13
74637;BME280;63141;54.616;39.754;2023-04-25T06:04:42;100048.72;;;24.75;31.83
74637;BME280;63141;54.616;39.754;2023-04-25T06:07:44;100058.53;;;24.75;31.90
74637;BME280;63141;54.616;39.754;2023-04-25T06:10:45;100041.78;;;24.73;31.95
74637;BME280;63141;54.616;39.754;2023-04-25T06:14:00;100038.94;;;24.76;31.59
74637;BME280;63141;54.616;39.754;2023-04-25T06:17:08;100036.19;;;24.77;31.98
74637;BME280;63141;54.616;39.754;2023-04-25T06:20:12;100021.19;;;24.76;31.75
74637;BME280;63141;54.616;39.754;2023-04-25T06:23:24;100022.94;;;24.76;31.58
74637;BME280;63141;54.616;39.754;2023-04-25T06:26:31;100020.28;;;24.76;31.78
74637;BME280;63141;54.616;39.754;2023-04-25T06:29:38;100019.38;;;24.77;31.85
74637;BME280;63141;54.616;39.754;2023-04-25T06:32:45;100011.28;;;24.78;31.57
74637;BME280;63141;54.616;39.754;2023-04-25T06:35:56;100017.38;;;24.80;31.70
74637;BME280;63141;54.616;39.754;2023-04-25T06:39:16;100011.97;;;24.82;31.84
74637;BME280;63141;54.616;39.754;2023-04-25T06:42:21;100011.03;;;24.83;31.83
74637;BME280;63141;54.616;39.754;2023-04-25T06:45:38;100006.66;;;24.82;31.42
74637;BME280;63141;54.616;39.754;2023-04-25T06:48:42;100010.97;;;24.84;31.47
74637;BME280;63141;54.616;39.754;2023-04-25T06:51:54;100008.22;;;24.86;31.30
74637;BME280;63141;54.616;39.754;2023-04-25T06:55:11;100016.22;;;24.86;31.65
74637;BME280;63141;54.616;39.754;2023-04-25T06:58:34;100013.44;;;24.87;31.67
74637;BME280;63141;54.616;39.754;2023-04-25T07:01:49;100009.00;;;24.88;31.61
74637;BME280;63141;54.616;39.754;2023-04-25T07:05:09;100002.72;;;24.89;31.26
74637;BME280;63141;54.616;39.754;2023-04-25T07:08:16;100018.69;;;24.89;31.17
74637;BME280;63141;54.616;39.754;2023-04-25T07:11:21;99996.53;;;24.88;31.46
74637;BME280;63141;54.616;39.754;2023-04-25T07:14:26;99995.56;;;24.90;31.21
74637;BME280;63141;54.616;39.754;2023-04-25T07:17:27;99997.22;;;24.92;31.42
74637;BME280;63141;54.616;39.754;2023-04-25T07:20:31;100000.66;;;24.94;31.16
74637;BME280;63141;54.616;39.754;2023-04-25T07:23:37;100000.66;;;24.94;31.26
74637;BME280;63141;54.616;39.754;2023-04-25T07:26:55;99992.66;;;24.94;30.81
74637;BME280;63141;54.616;39.754;2023-04-25T07:30:15;99979.34;;;24.94;30.53
74637;BME280;63141;54.616;39.754;2023-04-25T07:33:25;99981.09;;;24.95;31.03
74637;BME280;63141;54.616;39.754;2023-04-25T07:36:26;99986.41;;;24.95;30.50
74637;BME280;63141;54.616;39.754;2023-04-25T07:39:35;99978.31;;;24.97;30.56
74637;BME280;63141;54.616;39.754;2023-04-25T07:42:45;99976.44;;;24.99;30.65
74637;BME280;63141;54.616;39.754;2023-04-25T07:46:22;99970.25;;;24.98;30.34
74637;BME280;63141;54.616;39.754;2023-04-25T07:49:29;99965.78;;;24.99;30.27
74637;BME280;63141;54.616;39.754;2023-04-25T07:52:37;99959.41;;;25.01;30.62
74637;BME280;63141;54.616;39.754;2023-04-25T07:55:48;99966.47;;;25.02;30.16
74637;BME280;63141;54.616;39.754;2023-04-25T07:59:05;99969.13;;;25.02;30.38
74637;BME280;63141;54.616;39.754;2023-04-25T08:02:09;99959.41;;;25.01;30.42
74637;BME280;63141;54.616;39.754;2023-04-25T08:05:14;99959.41;;;25.01;30.38
74637;BME280;63141;54.616;39.754;2023-04-25T08:08:26;99952.38;;;25.00;30.32
74637;BME280;63141;54.616;39.754;2023-04-25T08:11:33;99948.84;;;25.00;30.08
74637;BME280;63141;54.616;39.754;2023-04-25T08:14:41;99952.38;;;25.00;30.49
74637;BME280;63141;54.616;39.754;2023-04-25T08:17:46;99945.34;;;24.99;30.43
74637;BME280;63141;54.616;39.754;2023-04-25T08:20:50;99950.66;;;24.99;30.38
74637;BME280;63141;54.616;39.754;2023-04-25T08:23:58;99934.56;;;25.01;30.29
74637;BME280;63141;54.616;39.754;2023-04-25T08:27:06;99930.22;;;25.00;30.51
74637;BME280;63141;54.616;39.754;2023-04-25T08:30:24;99923.91;;;25.01;30.04
74637;BME280;63141;54.616;39.754;2023-04-25T08:33:32;99925.72;;;25.00;30.13
74637;BME280;63141;54.616;39.754;2023-04-25T08:36:40;99920.41;;;25.00;30.25
74637;BME280;63141;54.616;39.754;2023-04-25T08:40:11;99918.69;;;24.99;30.63
74637;BME280;63141;54.616;39.754;2023-04-25T08:43:37;99916.97;;;24.98;30.57
74637;BME280;63141;54.616;39.754;2023-04-25T08:46:42;99915.34;;;24.96;30.47
74637;BME280;63141;54.616;39.754;2023-04-25T08:50:03;99910.00;;;24.96;30.17
74637;BME280;63141;54.616;39.754;2023-04-25T08:53:08;99902.00;;;24.96;30.31
74637;BME280;63141;54.616;39.754;2023-04-25T08:56:12;99912.75;;;24.94;30.20
74637;BME280;63141;54.616;39.754;2023-04-25T08:59:14;99905.72;;;24.93;30.36
74637;BME280;63141;54.616;39.754;2023-04-25T09:02:29;99899.59;;;24.91;30.54
74637;BME280;63141;54.616;39.754;2023-04-25T09:05:42;99894.28;;;24.91;30.48
74637;BME280;63141;54.616;39.754;2023-04-25T09:09:07;99894.28;;;24.91;30.32
74637;BME280;63141;54.616;39.754;2023-04-25T09:12:11;99877.59;;;24.87;30.41
74637;BME280;63141;54.616;39.754;2023-04-25T09:15:18;99881.22;;;24.86;30.43
74637;BME280;63141;54.616;39.754;2023-04-25T09:18:47;99876.72;;;24.87;30.38
74637;BME280;63141;54.616;39.754;2023-04-25T09:22:00;99866.06;;;24.87;30.36
74637;BME280;63141;54.616;39.754;2023-04-25T09:25:14;99864.38;;;24.86;30.87
74637;BME280;63141;54.616;39.754;2023-04-25T09:28:26;99856.47;;;24.84;30.43
74637;BME280;63141;54.616;39.754;2023-04-25T09:31:32;99860.09;;;24.83;30.89
74637;BME280;63141;54.616;39.754;2023-04-25T09:34:52;99855.78;;;24.81;30.92
74637;BME280;63141;54.616;39.754;2023-04-25T09:38:01;99842.47;;;24.81;30.66
74637;BME280;63141;54.616;39.754;2023-04-25T09:41:31;99838.91;;;24.80;30.73
74637;BME280;63141;54.616;39.754;2023-04-25T09:44:44;99836.38;;;24.79;30.77
74637;BME280;63141;54.616;39.754;2023-04-25T09:47:49;99833.78;;;24.77;30.54
74637;BME280;63141;54.616;39.754;2023-04-25T09:51:19;99825.00;;;24.75;30.91
74637;BME280;63141;54.616;39.754;2023-04-25T09:54:30;99826.03;;;24.73;30.87
74637;BME280;63141;54.616;39.754;2023-04-25T09:57:50;99828.72;;;24.73;30.82
74637;BME280;63141;54.616;39.754;2023-04-25T10:01:10;99815.47;;;24.71;30.86
74637;BME280;63141;54.616;39.754;2023-04-25T10:04:34;99813.84;;;24.69;30.86
74637;BME280;63141;54.616;39.754;2023-04-25T10:08:05;99813.84;;;24.69;30.96
74637;BME280;63141;54.616;39.754;2023-04-25T10:11:10;99819.16;;;24.69;30.89
74637;BME280;63141;54.616;39.754;2023-04-25T10:14:21;99806.81;;;24.67;30.69
74637;BME280;63141;54.616;39.754;2023-04-25T10:17:35;99811.19;;;24.69;30.70
74637;BME280;63141;54.616;39.754;2023-04-25T10:20:55;99809.53;;;24.66;30.75
74637;BME280;63141;54.616;39.754;2023-04-25T10:24:06;99803.38;;;24.65;30.81
74637;BME280;63141;54.616;39.754;2023-04-25T10:27:08;99805.25;;;24.63;30.65
74637;BME280;63141;54.616;39.754;2023-04-25T10:30:13;99805.25;;;24.63;30.91
74637;BME280;63141;54.616;39.754;2023-04-25T10:33:32;99798.22;;;24.62;30.64
74637;BME280;63141;54.616;39.754;2023-04-25T10:36:34;99801.81;;;24.61;30.49
74637;BME280;63141;54.616;39.754;2023-04-25T10:39:41;99793.91;;;24.60;30.71
74637;BME280;63141;54.616;39.754;2023-04-25T10:42:49;99792.19;;;24.59;30.64
74637;BME280;63141;54.616;39.754;2023-04-25T10:46:02;99782.41;;;24.59;30.77
74637;BME280;63141;54.616;39.754;2023-04-25T10:52:43;99781.56;;;24.59;30.48
74637;BME280;63141;54.616;39.754;2023-04-25T10:55:54;99780.69;;;24.58;30.71
74637;BME280;63141;54.616;39.754;2023-04-25T10:59:22;99779.75;;;24.59;30.40
74637;BME280;63141;54.616;39.754;2023-04-25T11:02:52;99763.00;;;24.57;30.64
74637;BME280;63141;54.616;39.754;2023-04-25T11:05:57;99759.41;;;24.58;30.44
74637;BME280;63141;54.616;39.754;2023-04-25T11:09:03;99763.75;;;24.59;30.38
74637;BME280;63141;54.616;39.754;2023-04-25T11:12:14;99756.72;;;24.58;30.61
74637;BME280;63141;54.616;39.754;2023-04-25T11:15:25;99745.31;;;24.56;30.72
74637;BME280;63141;54.616;39.754;2023-04-25T11:18:35;99746.16;;;24.57;30.72
74637;BME280;63141;54.616;39.754;2023-04-25T11:21:42;99739.97;;;24.56;30.59
74637;BME280;63141;54.616;39.754;2023-04-25T11:24:51;99732.00;;;24.56;30.40
74637;BME280;63141;54.616;39.754;2023-04-25T11:27:54;99725.91;;;24.54;30.41
74637;BME280;63141;54.616;39.754;2023-04-25T11:31:22;99727.59;;;24.55;30.53
74637;BME280;63141;54.616;39.754;2023-04-25T11:34:33;99718.84;;;24.53;30.68
74637;BME280;63141;54.616;39.754;2023-04-25T11:37:46;99712.84;;;24.50;30.57
74637;BME280;63141;54.616;39.754;2023-04-25T11:40:56;99705.28;;;24.42;30.38
74637;BME280;63141;54.616;39.754;2023-04-25T11:44:07;99694.78;;;24.39;30.78
74637;BME280;63141;54.616;39.754;2023-04-25T11:47:17;99687.75;;;24.38;31.08
74637;BME280;63141;54.616;39.754;2023-04-25T11:50:22;99684.97;;;24.39;31.11
74637;BME280;63141;54.616;39.754;2023-04-25T11:53:30;99681.47;;;24.39;31.39
74637;BME280;63141;54.616;39.754;2023-04-25T11:56:32;99676.16;;;24.39;31.18
74637;BME280;63141;54.616;39.754;2023-04-25T11:59:46;99666.28;;;24.41;31.29
74637;BME280;63141;54.616;39.754;2023-04-25T12:02:59;99658.28;;;24.41;31.50
74637;BME280;63141;54.616;39.754;2023-04-25T12:06:04;99660.09;;;24.40;31.49
74637;BME280;63141;54.616;39.754;2023-04-25T12:09:11;99645.06;;;24.39;31.25
74637;BME280;63141;54.616;39.754;2023-04-25T12:12:14;99638.09;;;24.37;31.16
74637;BME280;63141;54.616;39.754;2023-04-25T12:15:23;99642.59;;;24.36;31.33
74637;BME280;63141;54.616;39.754;2023-04-25T12:18:37;99629.19;;;24.38;31.68
74637;BME280;63141;54.616;39.754;2023-04-25T12:21:53;99626.28;;;24.42;31.40
74637;BME280;63141;54.616;39.754;2023-04-25T12:25:04;99619.91;;;24.45;31.58
74637;BME280;63141;54.616;39.754;2023-04-25T12:28:38;99614.44;;;24.48;31.54
74637;BME280;63141;54.616;39.754;2023-04-25T12:31:42;99605.50;;;24.49;31.52
74637;BME280;63141;54.616;39.754;2023-04-25T12:34:49;99596.56;;;24.50;31.32
74637;BME280;63141;54.616;39.754;2023-04-25T12:37:56;99589.53;;;24.49;31.49
74637;BME280;63141;54.616;39.754;2023-04-25T12:41:03;99594.88;;;24.49;31.34
74637;BME280;63141;54.616;39.754;2023-04-25T12:44:07;99586.09;;;24.47;31.61
74637;BME280;63141;54.616;39.754;2023-04-25T12:47:14;99588.78;;;24.47;31.90
74637;BME280;63141;54.616;39.754;2023-04-25T12:50:21;99575.47;;;24.47;31.79
74637;BME280;63141;54.616;39.754;2023-04-25T12:53:29;99572.06;;;24.43;31.92
74637;BME280;63141;54.616;39.754;2023-04-25T12:56:34;99569.41;;;24.43;31.98
74637;BME280;63141;54.616;39.754;2023-04-25T12:59:50;99555.25;;;24.43;31.90
74637;BME280;63141;54.616;39.754;2023-04-25T13:03:04;99568.56;;;24.43;31.72
74637;BME280;63141;54.616;39.754;2023-04-25T13:06:23;99554.28;;;24.44;32.20
74637;BME280;63141;54.616;39.754;2023-04-25T13:09:27;99553.44;;;24.43;31.81
74637;BME280;63141;54.616;39.754;2023-04-25T13:12:37;99542.78;;;24.43;32.35
74637;BME280;63141;54.616;39.754;2023-04-25T13:15:54;99556.09;;;24.43;32.49
74637;BME280;63141;54.616;39.754;2023-04-25T13:19:10;99558.00;;;24.41;32.98
74637;BME280;63141;54.616;39.754;2023-04-25T13:22:20;99559.81;;;24.41;33.01
74637;BME280;63141;54.616;39.754;2023-04-25T13:25:25;99552.78;;;24.40;33.02
74637;BME280;63141;54.616;39.754;2023-04-25T13:28:31;99560.84;;;24.38;33.34
74637;BME280;63141;54.616;39.754;2023-04-25T13:31:57;99560.00;;;24.38;33.65
74637;BME280;63141;54.616;39.754;2023-04-25T13:35:32;99558.25;;;24.37;33.79
74637;BME280;63141;54.616;39.754;2023-04-25T13:38:43;99554.66;;;24.38;33.39
74637;BME280;63141;54.616;39.754;2023-04-25T13:42:00;99550.13;;;24.40;33.58
74637;BME280;63141;54.616;39.754;2023-04-25T13:45:15;99552.66;;;24.41;34.19
74637;BME280;63141;54.616;39.754;2023-04-25T13:48:23;99535.06;;;24.39;33.97
74637;BME280;63141;54.616;39.754;2023-04-25T13:51:34;99528.81;;;24.40;34.52
74637;BME280;63141;54.616;39.754;2023-04-25T13:54:38;99524.44;;;24.39;34.19
74637;BME280;63141;54.616;39.754;2023-04-25T13:57:51;99519.97;;;24.39;34.86
74637;BME280;63141;54.616;39.754;2023-04-25T14:01:20;99515.53;;;24.40;34.99
74637;BME280;63141;54.616;39.754;2023-04-25T14:04:46;99502.28;;;24.38;34.90
74637;BME280;63141;54.616;39.754;2023-04-25T14:07:54;99497.81;;;24.39;34.62
74637;BME280;63141;54.616;39.754;2023-04-25T14:11:13;99493.34;;;24.39;35.01
74637;BME280;63141;54.616;39.754;2023-04-25T14:14:23;99494.22;;;24.40;35.06
74637;BME280;63141;54.616;39.754;2023-04-25T14:17:39;99495.94;;;24.41;35.18
74637;BME280;63141;54.616;39.754;2023-04-25T14:20:47;99480.81;;;24.41;34.86
74637;BME280;63141;54.616;39.754;2023-04-25T14:23:52;99481.69;;;24.42;35.14
74637;BME280;63141;54.616;39.754;2023-04-25T14:27:01;99475.41;;;24.43;35.20
74637;BME280;63141;54.616;39.754;2023-04-25T14:30:06;99463.78;;;24.44;35.43
74637;BME280;63141;54.616;39.754;2023-04-25T14:33:31;99454.88;;;24.45;35.40
74637;BME280;63141;54.616;39.754;2023-04-25T14:36:49;99454.78;;;24.46;35.49
74637;BME280;63141;54.616;39.754;2023-04-25T14:39:56;99449.56;;;24.45;35.77
74637;BME280;63141;54.616;39.754;2023-04-25T14:43:04;99439.69;;;24.47;36.07
74637;BME280;63141;54.616;39.754;2023-04-25T14:46:13;99432.56;;;24.48;36.40
74637;BME280;63141;54.616;39.754;2023-04-25T14:49:29;99427.16;;;24.49;36.26
74637;BME280;63141;54.616;39.754;2023-04-25T14:53:14;99415.53;;;24.50;36.53
74637;BME280;63141;54.616;39.754;2023-04-25T14:56:15;99411.06;;;24.51;36.92
74637;BME280;63141;54.616;39.754;2023-04-25T14:59:44;99413.66;;;24.52;37.87
74637;BME280;63141;54.616;39.754;2023-04-25T15:03:02;99403.00;;;24.52;38.37
74637;BME280;63141;54.616;39.754;2023-04-25T15:06:12;99399.38;;;24.53;38.55
74637;BME280;63141;54.616;39.754;2023-04-25T15:09:31;99384.28;;;24.54;38.63
74637;BME280;63141;54.616;39.754;2023-04-25T15:12:45;99373.63;;;24.54;38.96
74637;BME280;63141;54.616;39.754;2023-04-25T15:16:01;99374.28;;;24.57;39.68
74637;BME280;63141;54.616;39.754;2023-04-25T15:19:05;99367.25;;;24.56;39.60
74637;BME280;63141;54.616;39.754;2023-04-25T15:22:09;99363.63;;;24.57;40.40
74637;BME280;63141;54.616;39.754;2023-04-25T15:25:28;99354.72;;;24.58;40.41
74637;BME280;63141;54.616;39.754;2023-04-25T15:28:41;99345.84;;;24.58;40.53
74637;BME280;63141;54.616;39.754;2023-04-25T15:31:49;99338.75;;;24.58;41.13
74637;BME280;63141;54.616;39.754;2023-04-25T15:35:08;99338.75;;;24.58;41.26
74637;BME280;63141;54.616;39.754;2023-04-25T15:38:12;99327.31;;;24.56;41.26
74637;BME280;63141;54.616;39.754;2023-04-25T15:41:47;99319.13;;;24.59;41.39
74637;BME280;63141;54.616;39.754;2023-04-25T15:45:00;99318.28;;;24.59;41.85
74637;BME280;63141;54.616;39.754;2023-04-25T15:48:19;99314.78;;;24.58;41.68
74637;BME280;63141;54.616;39.754;2023-04-25T15:51:29;99313.91;;;24.58;41.93
74637;BME280;63141;54.616;39.754;2023-04-25T15:54:40;99302.31;;;24.59;41.73
74637;BME280;63141;54.616;39.754;2023-04-25T15:58:05;99292.50;;;24.59;41.70
74637;BME280;63141;54.616;39.754;2023-04-25T16:01:30;99286.34;;;24.59;41.86
74637;BME280;63141;54.616;39.754;2023-04-25T16:04:37;99286.25;;;24.60;41.87
74637;BME280;63141;54.616;39.754;2023-04-25T16:08:05;99273.13;;;24.57;42.41
74637;BME280;63141;54.616;39.754;2023-04-25T16:11:24;99272.19;;;24.58;42.79
74637;BME280;63141;54.616;39.754;2023-04-25T16:14:26;99265.97;;;24.58;42.51
74637;BME280;63141;54.616;39.754;2023-04-25T16:17:36;99263.22;;;24.59;42.79
74637;BME280;63141;54.616;39.754;2023-04-25T16:20:53;99258.00;;;24.58;42.95
74637;BME280;63141;54.616;39.754;2023-04-25T16:24:03;99251.81;;;24.57;42.66
74637;BME280;63141;54.616;39.754;2023-04-25T16:27:26;99251.81;;;24.57;42.45
74637;BME280;63141;54.616;39.754;2023-04-25T16:30:27;99239.47;;;24.56;42.60
74637;BME280;63141;54.616;39.754;2023-04-25T16:33:43;99238.63;;;24.56;42.45